Time;durP1;ratioP1;P1;durP2;ratioP2;P2;SDS_P1;SDS_P2;PMS_P1;PMS_P2;Temp;Humidity;BMP_temperature;BMP_pressure;BME280_temperature;BME280_humidity;BME280_pressure;Samples;Min_cycle;Max_cycle;Signal;HPM_P1;HPM_P2
2021/07/11 00:00:27;;;;;;;6.83;6.23;;;;;;;17.10;71.44;101695.19;3604164;40;20289;-81
2021/07/11 00:02:53;;;;;;;5.33;4.83;;;;;;;17.10;71.52;101695.19;3605965;40;20637;-81
2021/07/11 00:05:20;;;;;;;5.53;4.93;;;;;;;17.08;71.63;101699.53;3606936;40;20217;-81
2021/07/11 00:07:45;;;;;;;6.80;6.20;;;;;;;17.05;71.62;101695.19;3606731;40;20285;-81
2021/07/11 00:10:12;;;;;;;5.43;4.93;;;;;;;17.07;71.55;101695.16;3606583;40;20233;-80
2021/07/11 00:12:39;;;;;;;6.47;5.87;;;;;;;17.05;71.56;101692.59;3606218;40;20240;-81
2021/07/11 00:15:07;;;;;;;7.03;6.43;;;;;;;17.03;71.98;101703.75;3598484;40;20240;-81
2021/07/11 00:17:32;;;;;;;8.13;7.43;;;;;;;17.02;72.08;101699.44;3595956;40;20236;-81
2021/07/11 00:19:57;;;;;;;7.70;7.00;;;;;;;17.02;71.75;101699.44;3596544;40;20228;-81
2021/07/11 00:22:23;;;;;;;8.13;7.33;;;;;;;17.03;71.72;101694.28;3596695;40;20637;-81
2021/07/11 00:24:50;;;;;;;9.00;7.77;;;;;;;17.03;71.80;101698.59;3596575;40;20221;-81
2021/07/11 00:27:16;;;;;;;8.67;7.53;;;;;;;17.02;71.83;101705.50;3597628;40;20566;-81
2021/07/11 00:29:41;;;;;;;7.87;7.10;;;;;;;17.03;72.01;101693.41;3595886;40;20221;-80
2021/07/11 00:32:06;;;;;;;7.43;6.77;;;;;;;17.03;71.57;101693.41;3595761;40;20249;-80
2021/07/11 00:34:32;;;;;;;8.00;7.20;;;;;;;17.00;72.07;101689.09;3598452;40;20231;-81
2021/07/11 00:36:57;;;;;;;7.97;7.17;;;;;;;17.01;71.96;101695.13;3606405;40;20224;-81
2021/07/11 00:39:22;;;;;;;9.87;8.87;;;;;;;17.02;72.23;101692.56;3597088;40;20515;-80
2021/07/11 00:41:47;;;;;;;9.13;8.23;;;;;;;17.04;71.51;101690.00;3595783;40;20244;-81
2021/07/11 00:44:13;;;;;;;8.47;7.67;;;;;;;17.04;71.97;101690.00;3595874;40;20232;-80
2021/07/11 00:46:38;;;;;;;8.63;7.83;;;;;;;17.03;71.71;101696.00;3596360;40;20217;-79
2021/07/11 00:49:05;;;;;;;8.10;7.40;;;;;;;17.01;71.77;101692.56;3596690;40;20236;-80
2021/07/11 00:51:31;;;;;;;8.33;7.47;;;;;;;16.99;71.88;101697.72;3587162;40;20237;-80
2021/07/11 00:53:56;;;;;;;7.03;6.40;;;;;;;17.00;71.78;101699.44;3601031;40;20337;-79
2021/07/11 00:56:21;;;;;;;7.57;6.80;;;;;;;17.02;71.67;101702.03;3606312;40;20240;-79
2021/07/11 00:58:47;;;;;;;8.40;6.77;;;;;;;17.01;71.50;101702.91;3606885;40;20228;-78
2021/07/11 01:01:17;;;;;;;7.77;6.83;;;;;;;17.01;71.51;101708.97;3606703;40;20253;-79
2021/07/11 01:03:47;;;;;;;6.43;5.83;;;;;;;17.03;71.65;101711.53;3606713;40;20309;-79
2021/07/11 01:06:16;;;;;;;6.97;6.30;;;;;;;17.02;71.76;101707.22;3597906;40;20283;-79
2021/07/11 01:09:13;;;;;;;7.30;6.60;;;;;;;17.04;71.85;101708.13;3596084;40;20237;-79
2021/07/11 01:11:48;;;;;;;7.90;7.10;;;;;;;17.07;71.78;101703.81;3596647;40;20342;-80
2021/07/11 01:14:15;;;;;;;8.13;7.43;;;;;;;17.09;71.75;101699.50;3597231;40;20233;-79
2021/07/11 01:16:42;;;;;;;7.80;7.07;;;;;;;17.12;71.66;101703.84;3596897;40;20240;-80
2021/07/11 01:19:15;;;;;;;10.03;9.03;;;;;;;17.13;71.89;101713.34;3597047;40;20227;-81
2021/07/11 01:21:46;;;;;;;7.83;7.07;;;;;;;17.18;71.58;101717.69;3595428;40;20245;-80
2021/07/11 01:24:27;;;;;;;5.93;5.43;;;;;;;17.21;71.53;101720.31;3596309;40;20237;-81
2021/07/11 01:26:53;;;;;;;6.53;5.93;;;;;;;17.22;71.49;101718.59;3597034;40;20225;-80
2021/07/11 01:29:20;;;;;;;6.77;6.17;;;;;;;17.22;71.45;101723.78;3596840;40;20225;-80
2021/07/11 01:31:46;;;;;;;6.80;6.30;;;;;;;17.24;71.48;101728.09;3596873;40;20256;-80
2021/07/11 01:34:12;;;;;;;6.53;5.93;;;;;;;17.25;71.60;101723.78;3597624;40;20244;-80
2021/07/11 01:36:38;;;;;;;6.40;5.23;;;;;;;17.25;71.89;101721.19;3601545;40;20236;-80
2021/07/11 01:39:03;;;;;;;6.97;6.37;;;;;;;17.24;71.57;101722.94;3599119;40;20232;-79
2021/07/11 01:41:29;;;;;;;7.50;6.80;;;;;;;17.26;71.79;101720.31;3608591;40;20637;-80
2021/07/11 01:43:56;;;;;;;7.07;6.43;;;;;;;17.28;71.98;101722.09;3600347;40;20247;-79
2021/07/11 01:46:25;;;;;;;6.17;5.67;;;;;;;17.30;71.63;101716.91;3608550;40;20531;-80
2021/07/11 01:48:51;;;;;;;5.78;5.10;;;;;;;17.31;72.25;101721.25;3607273;40;20244;-80
2021/07/11 01:51:17;;;;;;;6.53;5.93;;;;;;;17.35;71.73;101717.78;3588561;40;20246;-80
2021/07/11 01:53:47;;;;;;;8.13;7.17;;;;;;;17.39;71.86;101712.69;3588584;40;20225;-80
2021/07/11 01:56:13;;;;;;;7.10;6.43;;;;;;;17.38;72.20;101712.63;3588834;40;20233;-81
2021/07/11 01:58:41;;;;;;;6.73;6.13;;;;;;;17.40;71.91;101713.56;3602641;40;20228;-81
2021/07/11 02:01:10;;;;;;;6.87;6.30;;;;;;;17.42;71.84;101715.31;3606973;40;20255;-80
2021/07/11 02:03:35;;;;;;;7.83;7.13;;;;;;;17.43;71.68;101709.25;3605419;40;20233;-80
2021/07/11 02:06:01;;;;;;;6.73;6.07;;;;;;;17.47;71.69;101712.72;3596647;40;20317;-80
2021/07/11 02:08:26;;;;;;;7.20;6.50;;;;;;;17.47;71.79;101717.91;3596528;40;20222;-80
2021/07/11 02:10:53;;;;;;;7.57;6.43;;;;;;;17.48;71.73;101717.91;3596090;40;20279;-80
2021/07/11 02:13:46;;;;;;;6.97;6.37;;;;;;;17.47;71.93;101708.41;3596740;40;20502;-80
2021/07/11 02:16:20;;;;;;;7.17;6.47;;;;;;;17.49;71.80;101703.22;3596366;40;20670;-80
2021/07/11 02:18:46;;;;;;;6.07;5.40;;;;;;;17.48;71.79;101698.91;3596731;40;20292;-80
2021/07/11 02:21:12;;;;;;;7.03;6.43;;;;;;;17.48;72.03;101704.09;3595081;40;20237;-80
2021/07/11 02:23:38;;;;;;;6.00;5.47;;;;;;;17.51;71.94;101709.28;3585203;40;20638;-79
2021/07/11 02:26:06;;;;;;;6.70;6.10;;;;;;;17.51;72.10;101706.72;3594466;40;20236;-80
2021/07/11 02:28:34;;;;;;;4.67;4.27;;;;;;;17.55;71.89;101711.03;3596010;40;20623;-80
2021/07/11 02:31:02;;;;;;;5.90;5.37;;;;;;;17.56;71.38;101708.47;3585202;40;20244;-79
2021/07/11 02:33:35;;;;;;;6.30;5.78;;;;;;;17.54;71.37;101698.97;3603847;40;20239;-80
2021/07/11 02:36:03;;;;;;;4.60;4.20;;;;;;;17.58;71.39;101698.97;3605750;40;20244;-80
2021/07/11 02:38:38;;;;;;;6.50;5.93;;;;;;;17.55;71.56;101701.53;3605582;40;20224;-81
2021/07/11 02:41:04;;;;;;;4.60;4.20;;;;;;;17.55;71.64;101706.72;3606230;40;20614;-80
2021/07/11 02:43:30;;;;;;;5.60;5.10;;;;;;;17.54;71.69;101701.56;3602740;40;20279;-79
2021/07/11 02:45:56;;;;;;;6.43;5.93;;;;;;;17.51;71.94;101699.81;3596247;40;20827;-81
2021/07/11 02:48:22;;;;;;;7.53;6.83;;;;;;;17.47;71.92;101700.66;3595336;40;20246;-80
2021/07/11 02:50:48;;;;;;;5.90;5.40;;;;;;;17.50;71.74;101699.81;3594940;40;20283;-79
2021/07/11 02:53:19;;;;;;;6.50;5.90;;;;;;;17.50;71.75;101697.22;3603822;40;20361;-79
2021/07/11 02:55:45;;;;;;;7.67;6.93;;;;;;;17.48;72.05;101691.13;3596098;40;20299;-79
2021/07/11 02:58:13;;;;;;;7.63;6.83;;;;;;;17.48;71.66;101698.91;3595877;40;20241;-79
2021/07/11 03:00:41;;;;;;;7.60;6.87;;;;;;;17.50;71.70;101699.81;3600585;40;20224;-80
2021/07/11 03:03:10;;;;;;;6.23;5.73;;;;;;;17.48;71.77;101697.19;3606286;40;20232;-79
2021/07/11 03:05:35;;;;;;;6.50;5.90;;;;;;;17.50;71.48;101694.63;3606367;40;20235;-80
2021/07/11 03:08:01;;;;;;;6.90;6.27;;;;;;;17.50;71.74;101698.06;3606281;40;20519;-79
2021/07/11 03:10:26;;;;;;;6.00;5.50;;;;;;;17.53;71.31;101690.31;3597210;40;20239;-80
2021/07/11 03:12:53;;;;;;;6.83;5.90;;;;;;;17.50;71.78;101694.63;3596183;40;20252;-80
2021/07/11 03:15:19;;;;;;;5.10;4.60;;;;;;;17.49;71.69;101698.91;3606213;40;20225;-80
2021/07/11 03:17:46;;;;;;;6.10;5.50;;;;;;;17.48;71.65;101697.19;3607158;40;20224;-79
2021/07/11 03:20:13;;;;;;;6.53;5.93;;;;;;;17.45;72.12;101693.72;3606526;40;20232;-80
2021/07/11 03:22:39;;;;;;;7.00;6.40;;;;;;;17.43;72.13;101696.31;3606129;40;20247;-80
2021/07/11 03:25:07;;;;;;;7.67;6.87;;;;;;;17.44;71.67;101698.03;3606414;40;20225;-80
2021/07/11 03:27:33;;;;;;;6.00;5.40;;;;;;;17.44;71.95;101700.63;3606283;40;20220;-80
2021/07/11 03:30:18;;;;;;;7.70;6.33;;;;;;;17.44;71.92;101705.81;3606740;40;20239;-80
2021/07/11 03:32:58;;;;;;;6.00;5.50;;;;;;;17.43;72.24;101698.03;3606659;40;20381;-80
2021/07/11 03:35:52;;;;;;;5.53;5.03;;;;;;;17.44;71.94;101699.75;3606868;40;20272;-80
2021/07/11 03:38:56;;;;;;;6.03;5.43;;;;;;;17.44;72.10;101695.44;3606158;40;20221;-79
2021/07/11 03:41:26;;;;;;;6.93;6.23;;;;;;;17.43;72.19;101700.59;3603596;40;20244;-80
2021/07/11 03:43:54;;;;;;;8.00;7.20;;;;;;;17.42;72.47;101697.19;3603771;40;20240;-81
2021/07/11 03:46:22;;;;;;;7.03;6.27;;;;;;;17.42;72.27;101698.88;3603963;40;20269;-79
2021/07/11 03:48:51;;;;;;;6.60;5.90;;;;;;;17.43;72.17;101703.19;3603767;40;20220;-79
2021/07/11 03:51:21;;;;;;;6.27;5.67;;;;;;;17.44;72.39;101704.91;3595209;40;20251;-80
2021/07/11 03:53:48;;;;;;;7.47;6.43;;;;;;;17.47;72.10;101702.38;3595666;40;20240;-80
2021/07/11 03:56:15;;;;;;;7.10;6.40;;;;;;;17.48;72.05;101698.91;3603230;40;20228;-79
2021/07/11 03:58:42;;;;;;;6.40;5.80;;;;;;;17.50;71.73;101708.41;3597795;40;20229;-79
2021/07/11 04:01:07;;;;;;;6.60;5.60;;;;;;;17.52;72.10;101698.94;3594446;40;20245;-79
2021/07/11 04:03:37;;;;;;;7.40;6.70;;;;;;;17.53;71.94;101705.84;3595874;40;20236;-79
2021/07/11 04:06:05;;;;;;;7.00;6.30;;;;;;;17.56;72.04;101697.22;3595151;40;20236;-79
2021/07/11 04:08:33;;;;;;;6.93;6.27;;;;;;;17.58;71.72;101705.84;3594407;40;20233;-80
2021/07/11 04:10:59;;;;;;;6.90;6.20;;;;;;;17.61;71.85;101704.19;3594583;40;20217;-80
2021/07/11 04:13:24;;;;;;;6.53;5.90;;;;;;;17.63;71.96;101702.44;3595523;40;20225;-79
2021/07/11 04:15:59;;;;;;;6.73;6.13;;;;;;;17.65;71.88;101700.75;3586455;40;20241;-80
2021/07/11 04:18:26;;;;;;;8.23;7.43;;;;;;;17.67;72.08;101703.31;3595797;40;20229;-81
2021/07/11 04:20:55;;;;;;;6.20;5.70;;;;;;;17.70;71.78;101706.81;3594883;40;20527;-79
2021/07/11 04:23:28;;;;;;;6.80;6.17;;;;;;;17.75;71.83;101707.69;3595359;40;20470;-79
2021/07/11 04:25:55;;;;;;;7.17;6.00;;;;;;;17.81;71.59;101706.81;3595884;40;20232;-79
2021/07/11 04:28:22;;;;;;;6.03;5.00;;;;;;;17.85;71.62;101705.97;3595840;40;20241;-80
2021/07/11 04:30:48;;;;;;;6.60;5.90;;;;;;;17.91;71.41;101706.88;3595438;40;20515;-79
2021/07/11 04:33:14;;;;;;;9.47;7.43;;;;;;;17.97;71.05;101703.44;3595178;40;20282;-79
2021/07/11 04:35:39;;;;;;;8.27;6.83;;;;;;;18.04;70.96;101707.75;3594744;40;20252;-79
2021/07/11 04:38:05;;;;;;;7.17;5.93;;;;;;;18.11;70.92;101706.94;3594480;40;20268;-80
2021/07/11 04:40:30;;;;;;;7.63;6.40;;;;;;;18.19;70.35;101708.69;3594197;40;20232;-80
2021/07/11 04:42:55;;;;;;;6.87;6.17;;;;;;;18.27;69.93;101706.09;3594288;40;20298;-80
2021/07/11 04:45:21;;;;;;;5.50;5.00;;;;;;;18.32;69.81;101702.66;3594502;40;20232;-80
2021/07/11 04:47:46;;;;;;;6.77;6.17;;;;;;;18.42;69.88;101701.84;3594890;40;20255;-80
2021/07/11 04:50:11;;;;;;;5.97;5.40;;;;;;;18.47;69.74;101704.47;3594576;40;20221;-80
2021/07/11 04:52:38;;;;;;;7.07;6.00;;;;;;;18.49;69.73;101701.00;3595477;40;20237;-79
2021/07/11 04:55:09;;;;;;;6.73;5.30;;;;;;;18.51;69.59;101703.59;3595134;40;20233;-79
2021/07/11 04:57:35;;;;;;;6.90;6.20;;;;;;;18.57;69.59;101711.38;3594516;40;20305;-80
2021/07/11 05:00:00;;;;;;;6.63;5.73;;;;;;;18.61;69.04;101715.72;3585146;40;20238;-80
2021/07/11 05:02:25;;;;;;;5.50;5.00;;;;;;;18.66;68.98;101725.19;3585321;40;20691;-79
2021/07/11 05:04:52;;;;;;;8.60;7.10;;;;;;;18.65;68.81;101727.81;3594654;40;20229;-79
2021/07/11 05:07:17;;;;;;;6.53;5.23;;;;;;;18.69;68.75;101726.94;3594738;40;20276;-79
2021/07/11 05:09:42;;;;;;;7.37;5.40;;;;;;;18.69;69.00;101729.53;3585186;40;20237;-79
2021/07/11 05:12:08;;;;;;;4.33;3.97;;;;;;;18.70;68.80;101729.53;3594179;40;20573;-79
2021/07/11 05:14:33;;;;;;;4.63;4.23;;;;;;;18.77;68.91;101740.78;3595932;40;20234;-80
2021/07/11 05:16:58;;;;;;;4.63;4.23;;;;;;;18.80;68.89;101743.41;3596384;40;20260;-79
2021/07/11 05:19:23;;;;;;;4.70;4.17;;;;;;;18.83;68.75;101739.06;3597184;40;20306;-80
2021/07/11 05:21:49;;;;;;;4.57;4.17;;;;;;;18.89;68.11;101740.81;3595840;40;20244;-79
2021/07/11 05:24:14;;;;;;;4.13;3.83;;;;;;;18.90;68.40;101738.22;3596649;40;20233;-80
2021/07/11 05:26:39;;;;;;;3.67;3.37;;;;;;;18.94;68.81;101736.47;3596461;40;20323;-80
2021/07/11 05:29:05;;;;;;;4.40;4.00;;;;;;;18.98;68.89;101739.06;3595952;40;21013;-78
2021/07/11 05:31:30;;;;;;;3.80;3.43;;;;;;;19.04;68.89;101738.19;3596321;40;20245;-80
2021/07/11 05:33:55;;;;;;;4.33;3.93;;;;;;;19.06;68.88;101739.91;3596792;40;20232;-80
2021/07/11 05:36:21;;;;;;;4.73;4.03;;;;;;;19.13;68.70;101739.06;3596606;40;20253;-79
2021/07/11 05:38:46;;;;;;;5.03;4.57;;;;;;;19.13;68.78;101739.06;3596509;40;20249;-79
2021/07/11 05:41:11;;;;;;;5.40;4.90;;;;;;;19.14;68.41;101738.19;3595900;40;20241;-79
2021/07/11 05:43:36;;;;;;;6.13;5.60;;;;;;;19.14;68.58;101740.78;3595994;40;20221;-79
2021/07/11 05:46:02;;;;;;;6.30;5.80;;;;;;;19.18;68.33;101742.53;3595781;40;20319;-80
2021/07/11 05:48:27;;;;;;;5.23;4.83;;;;;;;19.24;68.29;101739.06;3595912;40;20209;-79
2021/07/11 05:50:53;;;;;;;7.00;6.30;;;;;;;19.29;68.07;101745.09;3594357;40;20228;-80
2021/07/11 05:53:18;;;;;;;6.50;5.90;;;;;;;19.33;67.59;101734.72;3595854;40;20210;-79
2021/07/11 05:55:43;;;;;;;6.40;5.80;;;;;;;19.37;67.71;101728.66;3595885;40;20237;-79
2021/07/11 05:58:09;;;;;;;7.67;6.13;;;;;;;19.41;68.38;101732.09;3587497;40;20257;-80
2021/07/11 06:00:35;;;;;;;5.03;4.63;;;;;;;19.47;67.92;101739.88;3595996;40;20217;-80
2021/07/11 06:03:00;;;;;;;6.67;5.43;;;;;;;19.50;68.39;101732.09;3596366;40;20315;-80
2021/07/11 06:05:26;;;;;;;6.97;6.27;;;;;;;19.56;68.88;101737.25;3596073;40;20241;-80
2021/07/11 06:07:51;;;;;;;6.40;5.80;;;;;;;19.61;67.90;101726.00;3595871;40;20555;-79
2021/07/11 06:10:16;;;;;;;5.47;4.93;;;;;;;19.68;68.05;101732.91;3595575;40;20271;-80
2021/07/11 06:12:42;;;;;;;8.17;6.80;;;;;;;19.76;68.01;101738.06;3595815;40;20249;-79
2021/07/11 06:15:15;;;;;;;6.93;5.70;;;;;;;19.81;67.81;101736.31;3596073;40;20480;-81
2021/07/11 06:17:41;;;;;;;6.73;6.13;;;;;;;19.84;67.08;101734.56;3587241;40;20638;-79
2021/07/11 06:20:09;;;;;;;7.67;5.77;;;;;;;19.91;66.86;101736.28;3596447;40;20213;-81
2021/07/11 06:22:36;;;;;;;5.40;5.00;;;;;;;19.98;67.19;101731.91;3596412;40;20315;-80
2021/07/11 06:25:07;;;;;;;7.00;5.97;;;;;;;20.05;66.76;101731.00;3595449;40;20240;-80
2021/07/11 06:27:35;;;;;;;6.77;5.40;;;;;;;20.11;67.06;101737.09;3596462;40;20257;-80
2021/07/11 06:30:00;;;;;;;5.60;5.10;;;;;;;20.14;67.34;101734.47;3587357;40;20237;-80
2021/07/11 06:32:25;;;;;;;5.47;4.97;;;;;;;20.21;67.20;101740.47;3594897;40;20233;-81
2021/07/11 06:34:51;;;;;;;5.47;5.07;;;;;;;20.31;66.72;101750.00;3594753;40;20221;-81
2021/07/11 06:37:16;;;;;;;6.47;5.87;;;;;;;20.34;66.41;101740.41;3594880;40;20306;-79
2021/07/11 06:39:41;;;;;;;5.70;5.13;;;;;;;20.40;66.52;101744.72;3585104;40;20635;-79
2021/07/11 06:42:07;;;;;;;6.40;5.80;;;;;;;20.46;65.96;101739.47;3594720;40;20252;-80
2021/07/11 06:44:32;;;;;;;7.07;6.33;;;;;;;20.51;66.17;101740.31;3595511;40;20283;-80
2021/07/11 06:46:57;;;;;;;6.70;6.00;;;;;;;20.53;65.55;101749.84;3595732;40;20292;-80
2021/07/11 06:49:23;;;;;;;7.47;6.77;;;;;;;20.58;65.59;101744.59;3595933;40;20221;-80
2021/07/11 06:51:49;;;;;;;6.33;5.73;;;;;;;20.65;65.36;101741.06;3595391;40;20272;-81
2021/07/11 06:54:14;;;;;;;5.90;5.50;;;;;;;20.71;64.96;101741.91;3595737;40;20217;-79
2021/07/11 06:56:39;;;;;;;6.43;5.83;;;;;;;20.79;65.09;101742.72;3595701;40;20606;-80
2021/07/11 06:59:05;;;;;;;7.60;6.90;;;;;;;20.87;65.05;101743.50;3594432;40;20234;-80
2021/07/11 07:01:30;;;;;;;6.93;6.23;;;;;;;20.94;64.65;101742.59;3594522;40;20342;-81
2021/07/11 07:03:55;;;;;;;6.00;5.33;;;;;;;21.07;64.62;101743.34;3594683;40;20235;-80
2021/07/11 07:06:21;;;;;;;6.00;5.50;;;;;;;21.19;63.22;101738.06;3594719;40;20253;-80
2021/07/11 07:08:46;;;;;;;6.90;6.20;;;;;;;21.29;63.96;101742.28;3593457;40;20229;-79
2021/07/11 07:11:11;;;;;;;5.57;5.07;;;;;;;21.46;63.85;101737.78;3593690;40;20345;-80
2021/07/11 07:13:36;;;;;;;6.40;5.80;;;;;;;21.58;63.07;101735.88;3594283;40;20490;-80
2021/07/11 07:16:02;;;;;;;7.30;6.50;;;;;;;21.72;62.46;101740.97;3594498;40;20270;-80
2021/07/11 07:18:27;;;;;;;6.77;6.00;;;;;;;21.81;61.29;101744.34;3595772;40;20231;-80
2021/07/11 07:20:52;;;;;;;5.88;5.32;;;;;;;21.95;60.97;101739.81;3584248;40;20244;-80
2021/07/11 07:23:18;;;;;;;6.03;5.43;;;;;;;22.01;60.97;101742.34;3594080;40;20252;-81
2021/07/11 07:25:43;;;;;;;6.33;5.73;;;;;;;22.12;60.95;101750.03;3594349;40;20626;-80
2021/07/11 07:28:10;;;;;;;6.70;6.07;;;;;;;22.19;60.97;101741.22;3593346;40;20217;-80
2021/07/11 07:30:36;;;;;;;5.80;5.13;;;;;;;22.29;60.12;101741.09;3592963;40;20225;-79
2021/07/11 07:33:01;;;;;;;5.70;5.20;;;;;;;22.43;59.69;101740.91;3583711;40;21801;-79
2021/07/11 07:35:27;;;;;;;5.60;4.93;;;;;;;22.56;60.38;101737.22;3589926;40;20267;-79
2021/07/11 07:37:52;;;;;;;6.73;6.10;;;;;;;22.64;59.44;101740.59;3592658;40;20225;-81
2021/07/11 07:40:19;;;;;;;6.05;5.45;;;;;;;22.73;58.60;101740.44;3593258;40;20221;-81
2021/07/11 07:42:46;;;;;;;5.77;5.30;;;;;;;22.81;59.15;101729.88;3590425;40;20237;-81
2021/07/11 07:45:12;;;;;;;5.72;5.22;;;;;;;23.00;59.20;101739.13;3583335;40;20245;-80
2021/07/11 07:47:37;;;;;;;6.10;5.35;;;;;;;23.18;58.08;101725.75;3574720;40;20225;-80
2021/07/11 07:50:09;;;;;;;6.75;5.82;;;;;;;23.43;58.09;101725.28;3584498;40;20588;-81
2021/07/11 07:52:35;;;;;;;7.18;6.47;;;;;;;23.76;58.88;101719.38;3593057;40;20260;-80
2021/07/11 07:55:00;;;;;;;7.65;5.50;;;;;;;24.02;57.44;101726.72;3593765;40;20225;-81
2021/07/11 07:57:25;;;;;;;6.35;5.18;;;;;;;24.23;56.02;101723.66;3593764;40;20269;-81
2021/07/11 07:59:51;;;;;;;5.63;5.05;;;;;;;24.43;56.52;101724.03;3592927;40;20213;-79
2021/07/11 08:02:17;;;;;;;5.30;4.80;;;;;;;24.70;55.14;101719.06;3594002;40;20263;-81
2021/07/11 08:04:43;;;;;;;5.90;5.10;;;;;;;24.88;54.03;101717.72;3593077;40;20686;-81
2021/07/11 08:07:08;;;;;;;5.32;4.93;;;;;;;25.01;52.63;101722.63;3592856;40;20243;-80
2021/07/11 08:09:34;;;;;;;5.85;5.32;;;;;;;25.15;51.97;101709.16;3584196;40;20222;-81
2021/07/11 08:11:59;;;;;;;5.28;4.78;;;;;;;25.28;52.49;101714.06;3584337;40;20241;-80
2021/07/11 08:14:24;;;;;;;5.65;5.15;;;;;;;25.44;52.81;101718.00;3593866;40;20219;-80
2021/07/11 08:16:50;;;;;;;5.15;4.72;;;;;;;25.60;50.95;101713.19;3593275;40;20775;-80
2021/07/11 08:19:15;;;;;;;9.20;5.70;;;;;;;25.71;51.34;101711.13;3593222;40;20221;-81
2021/07/11 08:21:40;;;;;;;5.65;5.15;;;;;;;25.81;50.96;101713.44;3593983;40;20256;-80
2021/07/11 08:24:05;;;;;;;6.23;5.73;;;;;;;25.90;50.62;101707.91;3593843;40;20229;-81
2021/07/11 08:26:32;;;;;;;4.95;4.55;;;;;;;26.08;51.70;101709.16;3594245;40;20222;-80
2021/07/11 08:28:58;;;;;;;6.20;5.65;;;;;;;26.20;51.85;101714.88;3593232;40;20227;-79
2021/07/11 08:31:23;;;;;;;6.72;5.43;;;;;;;26.20;50.25;101714.88;3593035;40;20236;-81
2021/07/11 08:33:49;;;;;;;6.35;5.60;;;;;;;26.18;49.05;101719.34;3582391;39;20244;-80
2021/07/11 08:36:14;;;;;;;5.70;5.05;;;;;;;26.27;49.30;101716.44;3592487;40;20229;-80
2021/07/11 08:38:39;;;;;;;6.00;5.22;;;;;;;26.35;49.91;101710.94;3593194;40;20223;-81
2021/07/11 08:41:04;;;;;;;7.53;5.90;;;;;;;26.26;49.65;101713.84;3593659;40;20252;-81
2021/07/11 08:43:30;;;;;;;6.90;5.72;;;;;;;26.24;48.54;101713.88;3593361;40;20229;-80
2021/07/11 08:45:55;;;;;;;5.95;5.35;;;;;;;26.33;48.98;101713.59;3593774;40;20244;-79
2021/07/11 08:48:21;;;;;;;5.47;5.00;;;;;;;26.49;48.91;101706.97;3593533;40;20244;-79
2021/07/11 08:50:46;;;;;;;5.60;5.10;;;;;;;26.63;48.71;101704.78;3594533;40;20487;-81
2021/07/11 08:53:14;;;;;;;5.60;5.20;;;;;;;26.84;47.82;101703.22;3586937;40;20680;-80
2021/07/11 08:55:40;;;;;;;6.20;5.60;;;;;;;26.99;48.08;101705.31;3604916;40;20224;-80
2021/07/11 08:58:05;;;;;;;6.20;5.60;;;;;;;27.04;47.12;101706.88;3605179;40;20228;-81
2021/07/11 09:00:36;;;;;;;6.45;5.38;;;;;;;26.97;47.43;101708.00;3604997;40;20232;-80
2021/07/11 09:03:04;;;;;;;6.47;4.93;;;;;;;26.97;47.57;101699.22;3604677;40;20236;-79
2021/07/11 09:05:39;;;;;;;6.40;5.85;;;;;;;26.98;47.50;101695.72;3604842;40;20631;-80
2021/07/11 09:08:10;;;;;;;10.52;5.53;;;;;;;27.00;47.01;101696.50;3604837;40;20243;-81
2021/07/11 09:10:40;;;;;;;5.55;5.05;;;;;;;27.07;47.80;101695.41;3604691;40;20405;-81
2021/07/11 09:13:13;;;;;;;5.15;4.75;;;;;;;27.12;48.28;101701.34;3604701;40;20326;-80
2021/07/11 09:15:42;;;;;;;6.45;5.10;;;;;;;27.06;47.83;101699.78;3588946;40;20561;-81
2021/07/11 09:18:08;;;;;;;7.38;6.32;;;;;;;27.07;46.05;101693.59;3595059;40;20232;-81
2021/07/11 09:20:48;;;;;;;6.95;6.30;;;;;;;27.29;46.41;101702.50;3595400;40;20455;-81
2021/07/11 09:23:13;;;;;;;5.60;5.20;;;;;;;27.49;46.99;101701.78;3593905;40;20233;-80
2021/07/11 09:25:39;;;;;;;5.18;4.78;;;;;;;27.69;47.31;101701.91;3594087;40;20225;-80
2021/07/11 09:28:11;;;;;;;5.88;5.38;;;;;;;27.94;47.84;101705.34;3591392;40;20292;-81
2021/07/11 09:30:37;;;;;;;6.80;5.63;;;;;;;27.99;46.55;101700.75;3574369;40;20254;-81
2021/07/11 09:33:02;;;;;;;6.53;5.30;;;;;;;28.10;45.39;101704.69;3583563;40;20237;-81
2021/07/11 09:35:28;;;;;;;5.65;5.18;;;;;;;28.20;45.64;101702.59;3577228;39;20620;-81
2021/07/11 09:38:00;;;;;;;6.75;6.00;;;;;;;28.34;44.49;101694.97;3594217;40;20229;-81
2021/07/11 09:40:27;;;;;;;6.53;6.03;;;;;;;28.48;43.84;101693.56;3577897;40;20223;-81
2021/07/11 09:42:57;;;;;;;6.35;5.70;;;;;;;28.40;43.47;101692.13;3584616;40;20234;-81
2021/07/11 09:45:30;;;;;;;6.10;5.50;;;;;;;28.63;44.59;101700.81;3581936;40;20361;-82
2021/07/11 09:48:14;;;;;;;6.50;5.90;;;;;;;28.82;44.29;101699.13;3583870;40;20221;-80
2021/07/11 09:50:40;;;;;;;6.40;5.90;;;;;;;28.94;43.01;101697.75;3583864;40;20258;-81
2021/07/11 09:53:06;;;;;;;6.40;5.90;;;;;;;29.05;42.08;101692.91;3584459;40;20245;-81
2021/07/11 09:55:35;;;;;;;6.60;6.00;;;;;;;29.11;42.11;101692.66;3584198;40;20706;-81
2021/07/11 09:58:03;;;;;;;5.60;5.20;;;;;;;29.21;42.23;101696.59;3583891;40;20230;-81
2021/07/11 10:00:30;;;;;;;6.05;5.57;;;;;;;29.24;43.32;101693.84;3583927;40;20225;-79
2021/07/11 10:02:58;;;;;;;5.40;5.00;;;;;;;29.29;42.23;101699.78;3583891;40;20286;-81
2021/07/11 10:05:25;;;;;;;5.85;5.30;;;;;;;29.39;41.70;101688.72;3574780;40;20584;-81
2021/07/11 10:07:51;;;;;;;6.35;5.75;;;;;;;29.40;42.84;101687.81;3583830;40;20226;-81
2021/07/11 10:10:19;;;;;;;6.00;5.38;;;;;;;29.51;43.31;101687.31;3583810;40;20222;-80
2021/07/11 10:12:45;;;;;;;5.45;4.90;;;;;;;29.66;42.65;101686.66;3583613;40;20529;-82
2021/07/11 10:15:15;;;;;;;5.18;4.78;;;;;;;29.57;41.40;101693.19;3574822;40;20233;-81
2021/07/11 10:17:43;;;;;;;4.90;4.50;;;;;;;29.63;42.13;101694.72;3574448;40;20221;-81
2021/07/11 10:20:10;;;;;;;6.22;5.45;;;;;;;29.68;41.92;101682.16;3580468;40;20234;-81
2021/07/11 10:22:49;;;;;;;5.65;5.15;;;;;;;29.72;41.93;101681.97;3593522;40;20616;-81
2021/07/11 10:25:18;;;;;;;5.05;4.28;;;;;;;29.84;40.49;101686.66;3593649;40;20310;-82
2021/07/11 10:27:44;;;;;;;5.75;5.30;;;;;;;29.72;39.91;101684.59;3593640;40;20221;-80
2021/07/11 10:30:11;;;;;;;6.60;6.00;;;;;;;29.51;39.37;101690.81;3577406;40;20222;-79
2021/07/11 10:32:36;;;;;;;5.85;5.25;;;;;;;29.45;41.72;101691.09;3572136;40;20246;-79
2021/07/11 10:35:19;;;;;;;5.90;5.10;;;;;;;29.86;41.01;101682.19;3552690;40;20762;-81
2021/07/11 10:37:53;;;;;;;5.57;5.07;;;;;;;29.74;40.27;101690.66;3583658;40;20291;-79
2021/07/11 10:40:21;;;;;;;5.50;5.00;;;;;;;29.85;40.73;101684.88;3583115;40;20271;-80
2021/07/11 10:42:48;;;;;;;4.75;4.35;;;;;;;29.99;40.56;101682.44;3594475;40;20242;-80
2021/07/11 10:45:15;;;;;;;5.90;5.40;;;;;;;30.11;39.91;101685.34;3576556;40;20247;-78
2021/07/11 10:47:41;;;;;;;4.82;4.43;;;;;;;30.21;40.88;101685.81;3572491;40;20232;-80
2021/07/11 10:50:29;;;;;;;6.50;5.90;;;;;;;30.46;41.10;101677.53;3593474;40;20245;-81
2021/07/11 10:52:56;;;;;;;5.50;5.00;;;;;;;30.77;41.06;101678.63;3594018;40;20255;-82
2021/07/11 10:55:23;;;;;;;6.40;5.80;;;;;;;30.92;40.61;101682.25;3593583;40;20236;-81
2021/07/11 10:57:48;;;;;;;6.45;5.85;;;;;;;30.93;39.68;101676.03;3593531;40;20225;-79
2021/07/11 11:00:27;;;;;;;4.72;4.43;;;;;;;30.98;39.61;101674.03;3592990;40;20244;-80
2021/07/11 11:02:54;;;;;;;6.10;5.57;;;;;;;30.87;38.94;101674.56;3594123;40;20251;-80
2021/07/11 11:05:23;;;;;;;6.35;5.38;;;;;;;30.70;38.94;101681.66;3593503;40;20233;-81
2021/07/11 11:08:13;;;;;;;5.40;5.00;;;;;;;30.50;39.29;101679.09;3584294;40;20495;-80
2021/07/11 11:10:40;;;;;;;6.68;6.18;;;;;;;30.14;39.21;101681.75;3584339;40;20283;-83
2021/07/11 11:13:20;;;;;;;6.25;5.65;;;;;;;30.13;40.15;101689.75;3584332;40;20306;-82
2021/07/11 11:15:54;;;;;;;5.93;5.50;;;;;;;30.15;40.75;101682.63;3593617;40;20240;-81
2021/07/11 11:18:21;;;;;;;5.53;5.13;;;;;;;29.99;41.33;101682.44;3592101;40;20594;-81
2021/07/11 11:20:58;;;;;;;5.45;5.05;;;;;;;30.03;40.83;101676.09;3597991;40;20243;-79
2021/07/11 11:23:27;;;;;;;6.07;5.47;;;;;;;30.02;41.99;101677.00;3599098;40;20233;-81
2021/07/11 11:25:53;;;;;;;5.35;4.85;;;;;;;30.20;41.65;101676.16;3594063;40;20217;-81